sensor_id;sensor_type;location;lat;lon;timestamp;P1;durP1;ratioP1;P2;durP2;ratioP2
76167;SDS011;64927;48.214;16.378;2024-03-23T00:52:45;7.00;;;3.88;;
76167;SDS011;64927;48.214;16.378;2024-03-23T00:55:13;13.27;;;4.53;;
76167;SDS011;64927;48.214;16.378;2024-03-23T00:57:39;8.88;;;4.15;;
76167;SDS011;64927;48.214;16.378;2024-03-23T01:00:07;9.70;;;4.70;;
76167;SDS011;64927;48.214;16.378;2024-03-23T01:02:35;12.13;;;4.40;;
76167;SDS011;64927;48.214;16.378;2024-03-23T01:05:01;8.13;;;4.05;;
76167;SDS011;64927;48.214;16.378;2024-03-23T01:07:26;11.63;;;4.60;;
76167;SDS011;64927;48.214;16.378;2024-03-23T01:09:57;10.30;;;4.50;;
76167;SDS011;64927;48.214;16.378;2024-03-23T01:12:22;9.10;;;4.10;;
76167;SDS011;64927;48.214;16.378;2024-03-23T01:14:48;13.10;;;4.30;;
76167;SDS011;64927;48.214;16.378;2024-03-23T01:17:16;6.90;;;3.90;;
76167;SDS011;64927;48.214;16.378;2024-03-23T01:19:44;6.28;;;3.47;;
76167;SDS011;64927;48.214;16.378;2024-03-23T01:22:11;5.93;;;3.33;;
76167;SDS011;64927;48.214;16.378;2024-03-23T01:24:37;6.20;;;3.95;;
76167;SDS011;64927;48.214;16.378;2024-03-23T01:27:03;5.43;;;2.67;;
76167;SDS011;64927;48.214;16.378;2024-03-23T01:29:31;7.88;;;4.28;;
76167;SDS011;64927;48.214;16.378;2024-03-23T01:31:59;9.90;;;3.67;;
76167;SDS011;64927;48.214;16.378;2024-03-23T01:34:30;7.28;;;3.05;;
76167;SDS011;64927;48.214;16.378;2024-03-23T01:36:55;7.40;;;3.95;;
76167;SDS011;64927;48.214;16.378;2024-03-23T01:39:21;7.60;;;3.70;;
76167;SDS011;64927;48.214;16.378;2024-03-23T01:41:51;7.30;;;3.50;;
76167;SDS011;64927;48.214;16.378;2024-03-23T01:44:18;6.35;;;3.83;;
76167;SDS011;64927;48.214;16.378;2024-03-23T01:46:44;8.65;;;3.33;;
76167;SDS011;64927;48.214;16.378;2024-03-23T01:49:10;6.72;;;4.10;;
76167;SDS011;64927;48.214;16.378;2024-03-23T01:51:38;6.60;;;3.35;;
76167;SDS011;64927;48.214;16.378;2024-03-23T01:54:04;7.47;;;3.78;;
76167;SDS011;64927;48.214;16.378;2024-03-23T01:56:34;6.28;;;3.53;;
76167;SDS011;64927;48.214;16.378;2024-03-23T01:59:03;5.07;;;3.15;;
76167;SDS011;64927;48.214;16.378;2024-03-23T02:01:32;6.05;;;3.28;;
76167;SDS011;64927;48.214;16.378;2024-03-23T02:04:00;6.22;;;3.42;;
76167;SDS011;64927;48.214;16.378;2024-03-23T02:06:26;6.40;;;3.35;;
76167;SDS011;64927;48.214;16.378;2024-03-23T02:08:52;9.00;;;3.92;;
76167;SDS011;64927;48.214;16.378;2024-03-23T02:11:19;7.85;;;3.95;;
76167;SDS011;64927;48.214;16.378;2024-03-23T02:13:49;10.20;;;4.10;;
76167;SDS011;64927;48.214;16.378;2024-03-23T02:16:15;8.98;;;4.25;;
76167;SDS011;64927;48.214;16.378;2024-03-23T02:18:41;9.13;;;4.15;;
76167;SDS011;64927;48.214;16.378;2024-03-23T02:21:06;6.75;;;3.33;;
76167;SDS011;64927;48.214;16.378;2024-03-23T02:23:32;6.68;;;3.45;;
76167;SDS011;64927;48.214;16.378;2024-03-23T02:25:58;5.68;;;3.95;;
76167;SDS011;64927;48.214;16.378;2024-03-23T02:28:23;5.78;;;3.42;;
76167;SDS011;64927;48.214;16.378;2024-03-23T02:30:49;6.47;;;3.85;;
76167;SDS011;64927;48.214;16.378;2024-03-23T02:33:18;6.63;;;3.65;;
76167;SDS011;64927;48.214;16.378;2024-03-23T02:35:55;8.73;;;3.97;;
76167;SDS011;64927;48.214;16.378;2024-03-23T02:38:23;6.50;;;3.20;;
76167;SDS011;64927;48.214;16.378;2024-03-23T02:40:49;6.32;;;3.20;;
76167;SDS011;64927;48.214;16.378;2024-03-23T02:43:15;5.22;;;3.35;;
76167;SDS011;64927;48.214;16.378;2024-03-23T02:45:41;6.40;;;3.63;;
76167;SDS011;64927;48.214;16.378;2024-03-23T02:48:09;6.38;;;3.60;;
76167;SDS011;64927;48.214;16.378;2024-03-23T02:50:35;9.45;;;3.92;;
76167;SDS011;64927;48.214;16.378;2024-03-23T02:53:01;9.32;;;4.22;;
76167;SDS011;64927;48.214;16.378;2024-03-23T02:55:27;8.00;;;3.90;;
76167;SDS011;64927;48.214;16.378;2024-03-23T02:57:52;7.88;;;4.15;;
76167;SDS011;64927;48.214;16.378;2024-03-23T03:00:18;6.38;;;3.70;;
76167;SDS011;64927;48.214;16.378;2024-03-23T03:02:44;5.93;;;3.17;;
76167;SDS011;64927;48.214;16.378;2024-03-23T03:05:09;7.53;;;4.25;;
76167;SDS011;64927;48.214;16.378;2024-03-23T03:07:36;9.13;;;4.15;;
76167;SDS011;64927;48.214;16.378;2024-03-23T03:10:04;6.13;;;3.95;;
76167;SDS011;64927;48.214;16.378;2024-03-23T03:12:31;6.53;;;4.03;;
76167;SDS011;64927;48.214;16.378;2024-03-23T03:14:57;10.57;;;4.13;;
76167;SDS011;64927;48.214;16.378;2024-03-23T03:17:22;5.82;;;4.00;;
76167;SDS011;64927;48.214;16.378;2024-03-23T03:19:48;9.02;;;4.32;;
76167;SDS011;64927;48.214;16.378;2024-03-23T03:22:14;8.32;;;4.00;;
76167;SDS011;64927;48.214;16.378;2024-03-23T03:24:39;6.47;;;4.13;;
76167;SDS011;64927;48.214;16.378;2024-03-23T03:27:05;8.93;;;4.20;;
76167;SDS011;64927;48.214;16.378;2024-03-23T03:29:31;6.90;;;3.88;;
76167;SDS011;64927;48.214;16.378;2024-03-23T03:32:00;9.35;;;4.38;;
76167;SDS011;64927;48.214;16.378;2024-03-23T03:34:27;6.28;;;3.50;;
76167;SDS011;64927;48.214;16.378;2024-03-23T03:36:53;5.10;;;3.58;;
76167;SDS011;64927;48.214;16.378;2024-03-23T03:39:19;7.05;;;4.22;;
76167;SDS011;64927;48.214;16.378;2024-03-23T03:41:47;7.18;;;3.95;;
76167;SDS011;64927;48.214;16.378;2024-03-23T03:44:13;15.50;;;3.75;;
76167;SDS011;64927;48.214;16.378;2024-03-23T03:46:39;7.65;;;4.18;;
76167;SDS011;64927;48.214;16.378;2024-03-23T03:49:04;9.70;;;4.03;;
76167;SDS011;64927;48.214;16.378;2024-03-23T03:51:30;7.55;;;4.35;;
76167;SDS011;64927;48.214;16.378;2024-03-23T03:53:58;8.63;;;3.88;;
76167;SDS011;64927;48.214;16.378;2024-03-23T03:56:23;8.73;;;4.15;;
76167;SDS011;64927;48.214;16.378;2024-03-23T03:58:49;8.35;;;3.65;;
76167;SDS011;64927;48.214;16.378;2024-03-23T04:01:15;7.97;;;4.20;;
76167;SDS011;64927;48.214;16.378;2024-03-23T04:03:43;7.13;;;3.78;;
76167;SDS011;64927;48.214;16.378;2024-03-23T04:06:09;7.20;;;4.00;;
76167;SDS011;64927;48.214;16.378;2024-03-23T04:08:35;8.30;;;3.55;;
76167;SDS011;64927;48.214;16.378;2024-03-23T04:11:00;8.48;;;5.20;;
76167;SDS011;64927;48.214;16.378;2024-03-23T04:13:26;6.35;;;3.35;;
76167;SDS011;64927;48.214;16.378;2024-03-23T04:15:55;7.97;;;3.83;;
76167;SDS011;64927;48.214;16.378;2024-03-23T04:18:21;6.97;;;3.60;;
76167;SDS011;64927;48.214;16.378;2024-03-23T04:20:48;9.32;;;4.28;;
76167;SDS011;64927;48.214;16.378;2024-03-23T04:23:14;6.88;;;4.25;;
76167;SDS011;64927;48.214;16.378;2024-03-23T04:25:39;6.28;;;4.10;;
76167;SDS011;64927;48.214;16.378;2024-03-23T04:28:10;7.45;;;4.28;;
76167;SDS011;64927;48.214;16.378;2024-03-23T04:30:35;7.38;;;3.40;;
76167;SDS011;64927;48.214;16.378;2024-03-23T04:33:02;7.68;;;3.83;;
76167;SDS011;64927;48.214;16.378;2024-03-23T04:35:27;9.98;;;3.85;;
76167;SDS011;64927;48.214;16.378;2024-03-23T04:37:53;8.02;;;4.10;;
76167;SDS011;64927;48.214;16.378;2024-03-23T04:40:20;6.13;;;3.80;;
76167;SDS011;64927;48.214;16.378;2024-03-23T04:42:46;6.55;;;3.63;;
76167;SDS011;64927;48.214;16.378;2024-03-23T04:45:12;5.93;;;3.33;;
76167;SDS011;64927;48.214;16.378;2024-03-23T04:47:38;11.55;;;3.28;;
76167;SDS011;64927;48.214;16.378;2024-03-23T04:50:04;5.32;;;3.10;;
76167;SDS011;64927;48.214;16.378;2024-03-23T04:52:30;5.45;;;3.13;;
76167;SDS011;64927;48.214;16.378;2024-03-23T04:54:58;5.43;;;3.45;;
76167;SDS011;64927;48.214;16.378;2024-03-23T04:57:24;9.85;;;3.30;;
76167;SDS011;64927;48.214;16.378;2024-03-23T04:59:52;17.58;;;3.70;;
76167;SDS011;64927;48.214;16.378;2024-03-23T05:02:17;5.07;;;2.97;;
76167;SDS011;64927;48.214;16.378;2024-03-23T05:04:45;4.28;;;2.72;;
76167;SDS011;64927;48.214;16.378;2024-03-23T05:07:11;5.03;;;2.78;;
76167;SDS011;64927;48.214;16.378;2024-03-23T05:09:36;6.95;;;3.53;;
76167;SDS011;64927;48.214;16.378;2024-03-23T05:12:02;6.28;;;3.63;;
76167;SDS011;64927;48.214;16.378;2024-03-23T05:14:28;6.25;;;2.90;;
76167;SDS011;64927;48.214;16.378;2024-03-23T05:16:54;4.90;;;3.15;;
76167;SDS011;64927;48.214;16.378;2024-03-23T05:19:20;6.97;;;4.20;;
76167;SDS011;64927;48.214;16.378;2024-03-23T05:21:46;13.65;;;4.20;;
76167;SDS011;64927;48.214;16.378;2024-03-23T05:24:12;7.60;;;3.53;;
76167;SDS011;64927;48.214;16.378;2024-03-23T05:26:37;6.65;;;3.70;;
76167;SDS011;64927;48.214;16.378;2024-03-23T05:29:03;8.05;;;3.65;;
76167;SDS011;64927;48.214;16.378;2024-03-23T05:31:35;5.78;;;3.25;;
76167;SDS011;64927;48.214;16.378;2024-03-23T05:34:03;5.97;;;3.60;;
76167;SDS011;64927;48.214;16.378;2024-03-23T05:36:29;5.32;;;3.05;;
76167;SDS011;64927;48.214;16.378;2024-03-23T05:38:55;5.43;;;3.05;;
76167;SDS011;64927;48.214;16.378;2024-03-23T05:41:20;6.15;;;4.00;;
76167;SDS011;64927;48.214;16.378;2024-03-23T05:43:47;5.93;;;3.47;;
76167;SDS011;64927;48.214;16.378;2024-03-23T05:46:13;6.47;;;3.40;;
76167;SDS011;64927;48.214;16.378;2024-03-23T05:48:41;4.38;;;2.60;;
76167;SDS011;64927;48.214;16.378;2024-03-23T05:51:09;5.15;;;3.05;;
76167;SDS011;64927;48.214;16.378;2024-03-23T05:53:34;6.20;;;3.10;;
76167;SDS011;64927;48.214;16.378;2024-03-23T05:56:03;7.45;;;3.10;;
76167;SDS011;64927;48.214;16.378;2024-03-23T05:58:29;4.30;;;2.90;;
76167;SDS011;64927;48.214;16.378;2024-03-23T06:01:01;4.43;;;2.75;;
76167;SDS011;64927;48.214;16.378;2024-03-23T06:03:27;6.15;;;3.03;;
76167;SDS011;64927;48.214;16.378;2024-03-23T06:05:54;4.72;;;2.95;;
76167;SDS011;64927;48.214;16.378;2024-03-23T06:08:20;5.63;;;2.90;;
76167;SDS011;64927;48.214;16.378;2024-03-23T06:10:46;5.38;;;2.45;;
76167;SDS011;64927;48.214;16.378;2024-03-23T06:13:15;5.32;;;2.72;;
76167;SDS011;64927;48.214;16.378;2024-03-23T06:15:44;4.82;;;2.80;;
76167;SDS011;64927;48.214;16.378;2024-03-23T06:18:11;4.63;;;3.03;;
76167;SDS011;64927;48.214;16.378;2024-03-23T06:20:37;4.97;;;2.65;;
76167;SDS011;64927;48.214;16.378;2024-03-23T06:23:05;7.07;;;2.97;;
76167;SDS011;64927;48.214;16.378;2024-03-23T06:25:31;4.93;;;2.63;;
76167;SDS011;64927;48.214;16.378;2024-03-23T06:27:56;4.55;;;2.30;;
76167;SDS011;64927;48.214;16.378;2024-03-23T06:30:23;5.28;;;1.85;;
76167;SDS011;64927;48.214;16.378;2024-03-23T06:32:49;4.60;;;3.03;;
76167;SDS011;64927;48.214;16.378;2024-03-23T06:35:14;4.50;;;2.75;;
76167;SDS011;64927;48.214;16.378;2024-03-23T06:37:42;4.13;;;2.35;;
76167;SDS011;64927;48.214;16.378;2024-03-23T06:40:08;4.50;;;3.08;;
76167;SDS011;64927;48.214;16.378;2024-03-23T06:42:35;4.07;;;2.28;;
76167;SDS011;64927;48.214;16.378;2024-03-23T06:45:03;4.38;;;2.72;;
76167;SDS011;64927;48.214;16.378;2024-03-23T06:47:32;5.03;;;2.60;;
76167;SDS011;64927;48.214;16.378;2024-03-23T06:49:59;4.05;;;2.25;;
76167;SDS011;64927;48.214;16.378;2024-03-23T06:52:27;3.38;;;2.22;;
76167;SDS011;64927;48.214;16.378;2024-03-23T06:54:55;3.15;;;2.08;;
76167;SDS011;64927;48.214;16.378;2024-03-23T06:57:21;4.55;;;2.22;;
76167;SDS011;64927;48.214;16.378;2024-03-23T06:59:52;4.05;;;2.30;;
76167;SDS011;64927;48.214;16.378;2024-03-23T07:02:20;3.30;;;2.20;;
76167;SDS011;64927;48.214;16.378;2024-03-23T07:04:45;4.03;;;2.65;;
76167;SDS011;64927;48.214;16.378;2024-03-23T07:07:11;3.63;;;2.33;;
76167;SDS011;64927;48.214;16.378;2024-03-23T07:09:39;4.80;;;2.67;;
76167;SDS011;64927;48.214;16.378;2024-03-23T07:12:05;4.43;;;2.63;;
76167;SDS011;64927;48.214;16.378;2024-03-23T07:14:31;5.75;;;2.78;;
76167;SDS011;64927;48.214;16.378;2024-03-23T07:16:56;3.67;;;2.55;;
76167;SDS011;64927;48.214;16.378;2024-03-23T07:19:22;6.18;;;2.45;;
76167;SDS011;64927;48.214;16.378;2024-03-23T07:21:49;3.97;;;2.60;;
76167;SDS011;64927;48.214;16.378;2024-03-23T07:24:15;5.00;;;2.85;;
76167;SDS011;64927;48.214;16.378;2024-03-23T07:26:41;3.60;;;2.42;;
76167;SDS011;64927;48.214;16.378;2024-03-23T07:29:06;5.50;;;2.35;;
76167;SDS011;64927;48.214;16.378;2024-03-23T07:31:37;6.32;;;2.85;;
76167;SDS011;64927;48.214;16.378;2024-03-23T07:34:03;5.15;;;2.38;;
76167;SDS011;64927;48.214;16.378;2024-03-23T07:36:31;6.53;;;3.17;;
76167;SDS011;64927;48.214;16.378;2024-03-23T07:38:57;4.03;;;2.92;;
76167;SDS011;64927;48.214;16.378;2024-03-23T07:41:22;6.35;;;2.85;;
76167;SDS011;64927;48.214;16.378;2024-03-23T07:43:48;4.80;;;2.80;;
76167;SDS011;64927;48.214;16.378;2024-03-23T07:46:15;5.35;;;2.83;;
76167;SDS011;64927;48.214;16.378;2024-03-23T07:48:40;5.63;;;2.97;;
76167;SDS011;64927;48.214;16.378;2024-03-23T07:51:25;5.90;;;3.72;;
76167;SDS011;64927;48.214;16.378;2024-03-23T07:53:51;4.72;;;2.85;;
76167;SDS011;64927;48.214;16.378;2024-03-23T07:56:17;4.68;;;3.33;;
76167;SDS011;64927;48.214;16.378;2024-03-23T07:58:44;6.90;;;3.53;;
76167;SDS011;64927;48.214;16.378;2024-03-23T08:01:13;10.15;;;3.67;;
76167;SDS011;64927;48.214;16.378;2024-03-23T08:03:43;13.45;;;3.58;;
76167;SDS011;64927;48.214;16.378;2024-03-23T08:08:37;7.07;;;4.43;;
76167;SDS011;64927;48.214;16.378;2024-03-23T08:11:03;5.75;;;3.70;;
76167;SDS011;64927;48.214;16.378;2024-03-23T08:13:29;7.00;;;3.53;;
76167;SDS011;64927;48.214;16.378;2024-03-23T08:15:56;7.13;;;4.30;;
76167;SDS011;64927;48.214;16.378;2024-03-23T08:18:25;7.03;;;4.00;;
76167;SDS011;64927;48.214;16.378;2024-03-23T08:21:04;6.60;;;3.75;;
76167;SDS011;64927;48.214;16.378;2024-03-23T08:23:34;6.93;;;3.75;;
76167;SDS011;64927;48.214;16.378;2024-03-23T08:26:04;6.43;;;4.45;;
76167;SDS011;64927;48.214;16.378;2024-03-23T08:28:37;5.07;;;3.58;;
76167;SDS011;64927;48.214;16.378;2024-03-23T08:31:07;7.13;;;4.20;;
76167;SDS011;64927;48.214;16.378;2024-03-23T08:33:34;5.53;;;3.67;;
76167;SDS011;64927;48.214;16.378;2024-03-23T08:36:06;7.10;;;4.22;;
76167;SDS011;64927;48.214;16.378;2024-03-23T08:38:33;6.43;;;3.97;;
76167;SDS011;64927;48.214;16.378;2024-03-23T08:41:03;7.05;;;4.47;;
76167;SDS011;64927;48.214;16.378;2024-03-23T08:43:34;6.70;;;3.80;;
76167;SDS011;64927;48.214;16.378;2024-03-23T08:46:04;5.47;;;3.10;;
76167;SDS011;64927;48.214;16.378;2024-03-23T08:48:36;4.75;;;3.15;;
76167;SDS011;64927;48.214;16.378;2024-03-23T08:51:10;5.63;;;3.38;;
76167;SDS011;64927;48.214;16.378;2024-03-23T08:53:37;5.05;;;3.28;;
76167;SDS011;64927;48.214;16.378;2024-03-23T08:56:04;3.95;;;2.60;;
76167;SDS011;64927;48.214;16.378;2024-03-23T08:58:31;3.40;;;2.80;;
76167;SDS011;64927;48.214;16.378;2024-03-23T09:01:10;4.45;;;2.58;;
76167;SDS011;64927;48.214;16.378;2024-03-23T09:03:38;4.18;;;2.35;;
76167;SDS011;64927;48.214;16.378;2024-03-23T09:06:10;8.88;;;3.53;;
76167;SDS011;64927;48.214;16.378;2024-03-23T09:08:38;3.30;;;2.40;;
76167;SDS011;64927;48.214;16.378;2024-03-23T09:11:05;2.92;;;2.00;;
76167;SDS011;64927;48.214;16.378;2024-03-23T09:13:35;3.13;;;2.20;;
76167;SDS011;64927;48.214;16.378;2024-03-23T09:16:01;3.90;;;2.33;;
76167;SDS011;64927;48.214;16.378;2024-03-23T09:18:27;3.22;;;2.33;;
76167;SDS011;64927;48.214;16.378;2024-03-23T09:20:53;4.38;;;2.63;;
76167;SDS011;64927;48.214;16.378;2024-03-23T09:23:21;4.13;;;2.63;;
76167;SDS011;64927;48.214;16.378;2024-03-23T09:25:46;3.28;;;1.92;;
76167;SDS011;64927;48.214;16.378;2024-03-23T09:28:12;11.10;;;3.70;;
76167;SDS011;64927;48.214;16.378;2024-03-23T09:30:38;3.33;;;1.50;;
76167;SDS011;64927;48.214;16.378;2024-03-23T09:33:07;3.08;;;1.77;;
76167;SDS011;64927;48.214;16.378;2024-03-23T09:35:36;3.05;;;1.80;;
76167;SDS011;64927;48.214;16.378;2024-03-23T09:38:05;2.88;;;1.60;;
76167;SDS011;64927;48.214;16.378;2024-03-23T09:40:32;1.27;;;0.98;;
76167;SDS011;64927;48.214;16.378;2024-03-23T09:42:58;2.17;;;1.35;;
76167;SDS011;64927;48.214;16.378;2024-03-23T09:45:27;3.30;;;1.17;;
76167;SDS011;64927;48.214;16.378;2024-03-23T09:47:54;2.17;;;1.20;;
76167;SDS011;64927;48.214;16.378;2024-03-23T09:50:21;2.38;;;1.20;;
76167;SDS011;64927;48.214;16.378;2024-03-23T09:52:46;1.15;;;1.00;;
76167;SDS011;64927;48.214;16.378;2024-03-23T09:55:12;1.95;;;1.17;;
76167;SDS011;64927;48.214;16.378;2024-03-23T09:57:41;2.95;;;1.40;;
76167;SDS011;64927;48.214;16.378;2024-03-23T10:00:07;2.67;;;1.48;;
76167;SDS011;64927;48.214;16.378;2024-03-23T10:02:34;2.30;;;1.10;;
76167;SDS011;64927;48.214;16.378;2024-03-23T10:05:02;1.50;;;1.17;;
76167;SDS011;64927;48.214;16.378;2024-03-23T10:07:29;2.45;;;1.10;;
76167;SDS011;64927;48.214;16.378;2024-03-23T10:09:59;2.38;;;1.08;;
76167;SDS011;64927;48.214;16.378;2024-03-23T10:12:36;1.60;;;1.05;;
76167;SDS011;64927;48.214;16.378;2024-03-23T10:15:15;1.07;;;0.90;;
76167;SDS011;64927;48.214;16.378;2024-03-23T10:17:43;1.42;;;1.10;;
76167;SDS011;64927;48.214;16.378;2024-03-23T10:20:10;1.73;;;0.98;;
76167;SDS011;64927;48.214;16.378;2024-03-23T10:22:36;1.02;;;0.85;;
76167;SDS011;64927;48.214;16.378;2024-03-23T10:25:09;1.25;;;1.02;;
76167;SDS011;64927;48.214;16.378;2024-03-23T10:27:36;2.20;;;1.30;;
76167;SDS011;64927;48.214;16.378;2024-03-23T10:30:11;1.58;;;1.10;;
76167;SDS011;64927;48.214;16.378;2024-03-23T10:32:39;2.42;;;1.33;;
76167;SDS011;64927;48.214;16.378;2024-03-23T10:35:15;2.35;;;1.02;;
76167;SDS011;64927;48.214;16.378;2024-03-23T10:37:43;2.40;;;1.10;;
76167;SDS011;64927;48.214;16.378;2024-03-23T10:40:11;2.70;;;0.80;;
76167;SDS011;64927;48.214;16.378;2024-03-23T10:42:38;3.55;;;1.02;;
76167;SDS011;64927;48.214;16.378;2024-03-23T10:45:06;0.93;;;0.80;;
76167;SDS011;64927;48.214;16.378;2024-03-23T10:47:36;1.38;;;1.05;;
76167;SDS011;64927;48.214;16.378;2024-03-23T10:50:05;2.58;;;1.10;;
76167;SDS011;64927;48.214;16.378;2024-03-23T10:52:34;3.17;;;1.95;;
76167;SDS011;64927;48.214;16.378;2024-03-23T10:55:04;2.33;;;1.35;;
76167;SDS011;64927;48.214;16.378;2024-03-23T10:58:14;2.25;;;1.10;;
76167;SDS011;64927;48.214;16.378;2024-03-23T11:00:23;2.28;;;1.50;;
76167;SDS011;64927;48.214;16.378;2024-03-23T11:02:49;1.55;;;1.08;;
76167;SDS011;64927;48.214;16.378;2024-03-23T11:07:50;0.90;;;0.70;;
76167;SDS011;64927;48.214;16.378;2024-03-23T11:10:29;0.60;;;0.47;;
76167;SDS011;64927;48.214;16.378;2024-03-23T11:13:21;1.33;;;0.85;;
76167;SDS011;64927;48.214;16.378;2024-03-23T11:15:52;1.20;;;0.45;;
76167;SDS011;64927;48.214;16.378;2024-03-23T11:18:21;1.00;;;0.90;;
76167;SDS011;64927;48.214;16.378;2024-03-23T11:20:49;0.85;;;0.63;;
76167;SDS011;64927;48.214;16.378;2024-03-23T11:23:27;0.50;;;0.50;;
76167;SDS011;64927;48.214;16.378;2024-03-23T11:25:53;1.55;;;0.68;;
76167;SDS011;64927;48.214;16.378;2024-03-23T11:28:19;1.23;;;0.77;;
76167;SDS011;64927;48.214;16.378;2024-03-23T11:30:47;2.95;;;1.10;;
76167;SDS011;64927;48.214;16.378;2024-03-23T11:33:13;0.60;;;0.60;;
76167;SDS011;64927;48.214;16.378;2024-03-23T11:35:39;2.08;;;0.63;;
76167;SDS011;64927;48.214;16.378;2024-03-23T11:43:04;0.43;;;0.43;;
76167;SDS011;64927;48.214;16.378;2024-03-23T11:45:35;2.25;;;0.70;;
76167;SDS011;64927;48.214;16.378;2024-03-23T11:48:06;1.25;;;0.70;;
76167;SDS011;64927;48.214;16.378;2024-03-23T11:50:57;1.23;;;0.55;;
76167;SDS011;64927;48.214;16.378;2024-03-23T11:53:24;1.15;;;0.63;;
76167;SDS011;64927;48.214;16.378;2024-03-23T11:58:20;1.02;;;0.50;;
76167;SDS011;64927;48.214;16.378;2024-03-23T12:00:56;0.52;;;0.50;;
76167;SDS011;64927;48.214;16.378;2024-03-23T12:03:23;0.85;;;0.60;;
76167;SDS011;64927;48.214;16.378;2024-03-23T12:05:56;3.08;;;0.43;;
76167;SDS011;64927;48.214;16.378;2024-03-23T12:08:30;0.95;;;0.73;;
76167;SDS011;64927;48.214;16.378;2024-03-23T12:11:07;0.60;;;0.60;;
76167;SDS011;64927;48.214;16.378;2024-03-23T12:13:39;2.70;;;0.70;;
76167;SDS011;64927;48.214;16.378;2024-03-23T12:18:35;1.02;;;0.60;;
76167;SDS011;64927;48.214;16.378;2024-03-23T12:21:01;1.65;;;1.10;;
76167;SDS011;64927;48.214;16.378;2024-03-23T12:23:29;3.13;;;0.90;;
76167;SDS011;64927;48.214;16.378;2024-03-23T12:25:55;0.52;;;0.45;;
76167;SDS011;64927;48.214;16.378;2024-03-23T12:28:20;0.80;;;0.80;;
76167;SDS011;64927;48.214;16.378;2024-03-23T12:30:46;1.00;;;0.68;;
76167;SDS011;64927;48.214;16.378;2024-03-23T12:33:11;3.60;;;1.25;;
76167;SDS011;64927;48.214;16.378;2024-03-23T12:35:37;2.05;;;0.77;;
76167;SDS011;64927;48.214;16.378;2024-03-23T12:38:03;0.55;;;0.50;;
76167;SDS011;64927;48.214;16.378;2024-03-23T12:40:32;0.90;;;0.60;;
76167;SDS011;64927;48.214;16.378;2024-03-23T12:42:57;0.50;;;0.50;;
76167;SDS011;64927;48.214;16.378;2024-03-23T12:45:23;1.05;;;0.70;;
76167;SDS011;64927;48.214;16.378;2024-03-23T12:47:49;1.20;;;0.75;;
76167;SDS011;64927;48.214;16.378;2024-03-23T12:50:17;1.58;;;0.80;;
76167;SDS011;64927;48.214;16.378;2024-03-23T12:52:42;0.93;;;0.65;;
76167;SDS011;64927;48.214;16.378;2024-03-23T12:55:10;1.25;;;0.52;;
76167;SDS011;64927;48.214;16.378;2024-03-23T12:57:36;1.35;;;0.55;;
76167;SDS011;64927;48.214;16.378;2024-03-23T13:00:01;2.83;;;0.75;;
76167;SDS011;64927;48.214;16.378;2024-03-23T13:02:29;1.13;;;0.82;;
76167;SDS011;64927;48.214;16.378;2024-03-23T13:04:57;1.23;;;0.93;;
76167;SDS011;64927;48.214;16.378;2024-03-23T13:07:23;4.80;;;0.90;;
76167;SDS011;64927;48.214;16.378;2024-03-23T13:09:54;1.08;;;0.70;;
76167;SDS011;64927;48.214;16.378;2024-03-23T13:12:21;3.03;;;0.80;;
76167;SDS011;64927;48.214;16.378;2024-03-23T13:14:47;1.35;;;0.95;;
76167;SDS011;64927;48.214;16.378;2024-03-23T13:17:16;1.73;;;0.65;;
76167;SDS011;64927;48.214;16.378;2024-03-23T13:19:41;3.55;;;0.63;;
76167;SDS011;64927;48.214;16.378;2024-03-23T13:22:07;1.25;;;0.50;;
76167;SDS011;64927;48.214;16.378;2024-03-23T13:24:36;0.40;;;0.40;;
76167;SDS011;64927;48.214;16.378;2024-03-23T13:27:03;0.68;;;0.40;;
76167;SDS011;64927;48.214;16.378;2024-03-23T13:29:30;0.40;;;0.30;;
76167;SDS011;64927;48.214;16.378;2024-03-23T13:31:56;1.25;;;0.45;;
76167;SDS011;64927;48.214;16.378;2024-03-23T13:34:21;6.40;;;0.70;;
76167;SDS011;64927;48.214;16.378;2024-03-23T13:36:47;0.55;;;0.45;;
76167;SDS011;64927;48.214;16.378;2024-03-23T13:39:15;0.80;;;0.65;;
76167;SDS011;64927;48.214;16.378;2024-03-23T13:41:41;0.40;;;0.30;;
76167;SDS011;64927;48.214;16.378;2024-03-23T13:44:11;0.45;;;0.35;;
76167;SDS011;64927;48.214;16.378;2024-03-23T13:46:40;0.30;;;0.30;;
76167;SDS011;64927;48.214;16.378;2024-03-23T13:49:18;0.32;;;0.30;;
76167;SDS011;64927;48.214;16.378;2024-03-23T13:51:56;0.93;;;0.50;;
76167;SDS011;64927;48.214;16.378;2024-03-23T13:54:23;2.47;;;0.30;;
76167;SDS011;64927;48.214;16.378;2024-03-23T13:56:49;0.35;;;0.20;;
76167;SDS011;64927;48.214;16.378;2024-03-23T13:59:15;0.30;;;0.30;;
76167;SDS011;64927;48.214;16.378;2024-03-23T14:01:42;1.13;;;0.43;;
76167;SDS011;64927;48.214;16.378;2024-03-23T14:04:13;3.42;;;0.45;;
76167;SDS011;64927;48.214;16.378;2024-03-23T14:06:39;0.65;;;0.50;;
76167;SDS011;64927;48.214;16.378;2024-03-23T14:09:05;3.60;;;0.55;;
76167;SDS011;64927;48.214;16.378;2024-03-23T14:11:33;0.40;;;0.32;;
76167;SDS011;64927;48.214;16.378;2024-03-23T14:14:01;0.73;;;0.30;;
76167;SDS011;64927;48.214;16.378;2024-03-23T14:16:27;1.08;;;0.55;;
76167;SDS011;64927;48.214;16.378;2024-03-23T14:18:52;1.42;;;0.93;;
76167;SDS011;64927;48.214;16.378;2024-03-23T14:21:20;0.28;;;0.25;;
76167;SDS011;64927;48.214;16.378;2024-03-23T14:23:48;0.40;;;0.40;;
76167;SDS011;64927;48.214;16.378;2024-03-23T14:26:14;0.70;;;0.25;;
76167;SDS011;64927;48.214;16.378;2024-03-23T14:28:40;0.30;;;0.20;;
76167;SDS011;64927;48.214;16.378;2024-03-23T14:31:06;0.45;;;0.40;;
76167;SDS011;64927;48.214;16.378;2024-03-23T14:33:35;1.83;;;0.50;;
76167;SDS011;64927;48.214;16.378;2024-03-23T14:36:02;0.40;;;0.40;;
76167;SDS011;64927;48.214;16.378;2024-03-23T14:38:28;3.00;;;1.13;;
76167;SDS011;64927;48.214;16.378;2024-03-23T14:41:00;0.30;;;0.30;;
76167;SDS011;64927;48.214;16.378;2024-03-23T14:43:27;1.45;;;0.50;;
76167;SDS011;64927;48.214;16.378;2024-03-23T14:46:26;1.52;;;0.55;;
76167;SDS011;64927;48.214;16.378;2024-03-23T14:48:45;0.63;;;0.57;;
76167;SDS011;64927;48.214;16.378;2024-03-23T14:51:11;0.47;;;0.40;;
76167;SDS011;64927;48.214;16.378;2024-03-23T14:53:39;0.85;;;0.60;;
76167;SDS011;64927;48.214;16.378;2024-03-23T14:56:09;1.15;;;0.70;;
76167;SDS011;64927;48.214;16.378;2024-03-23T14:58:38;2.38;;;0.60;;
76167;SDS011;64927;48.214;16.378;2024-03-23T15:01:04;0.77;;;0.60;;
76167;SDS011;64927;48.214;16.378;2024-03-23T15:03:34;0.35;;;0.32;;
76167;SDS011;64927;48.214;16.378;2024-03-23T15:06:00;0.43;;;0.38;;
76167;SDS011;64927;48.214;16.378;2024-03-23T15:08:26;0.40;;;0.40;;
76167;SDS011;64927;48.214;16.378;2024-03-23T15:10:53;2.38;;;0.82;;
76167;SDS011;64927;48.214;16.378;2024-03-23T15:13:18;0.50;;;0.43;;
76167;SDS011;64927;48.214;16.378;2024-03-23T15:15:44;0.65;;;0.45;;
76167;SDS011;64927;48.214;16.378;2024-03-23T15:18:10;0.57;;;0.50;;
76167;SDS011;64927;48.214;16.378;2024-03-23T15:20:37;0.38;;;0.20;;
76167;SDS011;64927;48.214;16.378;2024-03-23T15:23:04;3.92;;;0.95;;
76167;SDS011;64927;48.214;16.378;2024-03-23T15:25:32;0.25;;;0.25;;
76167;SDS011;64927;48.214;16.378;2024-03-23T15:27:58;0.47;;;0.45;;
76167;SDS011;64927;48.214;16.378;2024-03-23T15:30:25;0.47;;;0.30;;
76167;SDS011;64927;48.214;16.378;2024-03-23T15:32:51;0.52;;;0.40;;
76167;SDS011;64927;48.214;16.378;2024-03-23T15:35:19;0.65;;;0.35;;
76167;SDS011;64927;48.214;16.378;2024-03-23T15:37:47;0.30;;;0.30;;
76167;SDS011;64927;48.214;16.378;2024-03-23T15:40:13;0.95;;;0.32;;
76167;SDS011;64927;48.214;16.378;2024-03-23T15:42:39;0.65;;;0.40;;